Roanoke, TX (76262)

1:16 PM CST on November 21, 2014 (GMT -0600)
KTXROANO6 | Change Station
CLOSE
Current Station
Personal Weather Station
Location: Roanoke, TX
Elevation: 640 ft
Nearby Weather Stations

Elev 640 ft 33.01 °N, 97.22 °W | Updated 1 second ago

Overcast
Overcast
68.7 °F
Feels Like 68.7 °F
N
2.2
Wind Variable Wind from ESE
Gusts 14.0 mph

Today
High -- | Low -- °F
--% Chance of Precip.
Yesterday
High -- | Low -- °F
Precip. -- in
7:04 AM 5:24 PM
Waning Crescent, 1% visible
Pressure 30.04 in
Visibility 10.0 miles
Clouds Mostly Cloudy 1500 ft
Overcast 3000 ft
Dew Point 60 °F
Humidity 75%
Rainfall 0.00 in
Snow Depth Not available.
UV 1 out of 12
Pollen 3.20 out of 12
Air Quality Not available.
Flu Activity Not available.
METAR KAFW 211853Z 17007KT 10SM BKN015 OVC030 19/16 A3006 RMK AO2 SLP173 T01940156

More Conditions Fewer Conditions

Pressure 30.04 in
Visibility 10.0 miles
Clouds Mostly Cloudy 1500 ft
Overcast 3000 ft
Dew Point 60 °F
Humidity 75%
Rainfall 0.00 in
Snow Depth Not available.
UV 1 out of 12
Pollen 3.20 out of 12
Air Quality Not available.
Flu Activity Not available.
METAR KAFW 211853Z 17007KT 10SM BKN015 OVC030 19/16 A3006 RMK AO2 SLP173 T01940156

More Conditions Fewer Conditions

Nowcast | as of 11:51 am CST on November 21, 2014

Light rain will continue over areas generally south of Interstate 20 and east of Interstate 35 through 2 PM. Rainfall totals are expected to remain below one tenth of an inch. This activity is moving to the north and northeast. Otherwise...mostly cloudy and humid conditions will prevail through the day. Temperatures will be in the 60s and 70s.

×

10-Day Weather Forecast

Almanac

Astronomy

Nov. 21, 2014 Rise Set
Actual Time
Civil Twilight
Nautical Twilight
Astronomical Twilight
Moon
Length of Visible Light
Length of Day
Tomorrow will be .
, % of the Moon is Illuminated

Today's Extremes

State Highs State Lows

Community

WunderPhotos

Upload Photos

1,772,702 photos uploaded!

WunderBlogs® & News

Nearby

Air Quality

  Air Quality AQ Index Pollutant
Not available.

Snow Depth

Station Depth Elevation

Earthquake Activity

City Distance Mag. Time & Date
Minimum magnitude displayed is 2.5.

Coastal Water Temperatures

Place Temperature

Nearby Weather Stations